sensor_id;sensor_type;location;lat;lon;timestamp;temperature;humidity
23637;DHT22;11995;50.842;4.456;2023-06-26T00:02:24;23.50;99.90
23637;DHT22;11995;50.842;4.456;2023-06-26T00:04:52;23.40;99.90
23637;DHT22;11995;50.842;4.456;2023-06-26T00:07:20;23.30;99.90
23637;DHT22;11995;50.842;4.456;2023-06-26T00:09:50;23.30;99.90
23637;DHT22;11995;50.842;4.456;2023-06-26T00:12:24;23.30;99.90
23637;DHT22;11995;50.842;4.456;2023-06-26T00:14:52;23.40;99.90
23637;DHT22;11995;50.842;4.456;2023-06-26T00:17:21;23.40;99.90
23637;DHT22;11995;50.842;4.456;2023-06-26T00:19:50;23.50;99.90
23637;DHT22;11995;50.842;4.456;2023-06-26T00:22:18;23.50;99.90
23637;DHT22;11995;50.842;4.456;2023-06-26T00:24:46;23.30;99.90
23637;DHT22;11995;50.842;4.456;2023-06-26T00:27:13;23.20;99.90
23637;DHT22;11995;50.842;4.456;2023-06-26T00:29:41;23.10;99.90
23637;DHT22;11995;50.842;4.456;2023-06-26T00:32:08;23.00;99.90
23637;DHT22;11995;50.842;4.456;2023-06-26T00:34:36;23.00;99.90
23637;DHT22;11995;50.842;4.456;2023-06-26T00:37:03;22.90;99.90
23637;DHT22;11995;50.842;4.456;2023-06-26T00:39:31;22.80;99.90
23637;DHT22;11995;50.842;4.456;2023-06-26T00:41:58;22.70;99.90
23637;DHT22;11995;50.842;4.456;2023-06-26T00:44:26;22.80;99.90
23637;DHT22;11995;50.842;4.456;2023-06-26T00:46:54;22.80;99.90
23637;DHT22;11995;50.842;4.456;2023-06-26T00:49:23;22.70;99.90
23637;DHT22;11995;50.842;4.456;2023-06-26T00:51:51;22.90;99.90
23637;DHT22;11995;50.842;4.456;2023-06-26T00:54:26;22.60;99.90
23637;DHT22;11995;50.842;4.456;2023-06-26T00:56:55;22.50;99.90
23637;DHT22;11995;50.842;4.456;2023-06-26T00:59:23;22.50;99.90
23637;DHT22;11995;50.842;4.456;2023-06-26T01:01:50;22.40;99.90
23637;DHT22;11995;50.842;4.456;2023-06-26T01:04:21;22.40;99.90
23637;DHT22;11995;50.842;4.456;2023-06-26T01:06:50;22.10;99.90
23637;DHT22;11995;50.842;4.456;2023-06-26T01:09:19;21.90;99.90
23637;DHT22;11995;50.842;4.456;2023-06-26T01:11:47;21.70;99.90
23637;DHT22;11995;50.842;4.456;2023-06-26T01:14:14;21.60;99.90
23637;DHT22;11995;50.842;4.456;2023-06-26T01:16:43;21.80;99.90
23637;DHT22;11995;50.842;4.456;2023-06-26T01:19:20;21.60;99.90
23637;DHT22;11995;50.842;4.456;2023-06-26T01:25:21;21.40;99.90
23637;DHT22;11995;50.842;4.456;2023-06-26T01:27:49;21.20;99.90
23637;DHT22;11995;50.842;4.456;2023-06-26T01:30:17;21.30;99.90
23637;DHT22;11995;50.842;4.456;2023-06-26T01:32:47;21.30;99.90
23637;DHT22;11995;50.842;4.456;2023-06-26T01:35:15;21.30;99.90
23637;DHT22;11995;50.842;4.456;2023-06-26T01:37:43;21.40;99.90
23637;DHT22;11995;50.842;4.456;2023-06-26T01:40:10;21.40;99.90
23637;DHT22;11995;50.842;4.456;2023-06-26T01:42:38;21.60;99.90
23637;DHT22;11995;50.842;4.456;2023-06-26T01:45:15;21.60;99.90
23637;DHT22;11995;50.842;4.456;2023-06-26T01:47:46;21.70;99.90
23637;DHT22;11995;50.842;4.456;2023-06-26T01:50:22;21.80;99.90
23637;DHT22;11995;50.842;4.456;2023-06-26T01:53:02;21.80;99.90
23637;DHT22;11995;50.842;4.456;2023-06-26T01:55:41;21.50;99.90
23637;DHT22;11995;50.842;4.456;2023-06-26T01:58:09;21.40;99.90
23637;DHT22;11995;50.842;4.456;2023-06-26T02:00:37;21.20;99.90
23637;DHT22;11995;50.842;4.456;2023-06-26T02:03:05;21.20;99.90
23637;DHT22;11995;50.842;4.456;2023-06-26T02:05:33;21.30;99.90
23637;DHT22;11995;50.842;4.456;2023-06-26T02:08:00;21.10;99.90
23637;DHT22;11995;50.842;4.456;2023-06-26T02:10:28;21.10;99.90
23637;DHT22;11995;50.842;4.456;2023-06-26T02:12:56;21.10;99.90
23637;DHT22;11995;50.842;4.456;2023-06-26T02:15:23;21.10;99.90
23637;DHT22;11995;50.842;4.456;2023-06-26T02:17:51;21.10;99.90
23637;DHT22;11995;50.842;4.456;2023-06-26T02:20:18;21.00;99.90
23637;DHT22;11995;50.842;4.456;2023-06-26T02:22:46;21.10;99.90
23637;DHT22;11995;50.842;4.456;2023-06-26T02:25:14;21.10;99.90
23637;DHT22;11995;50.842;4.456;2023-06-26T02:27:41;20.90;99.90
23637;DHT22;11995;50.842;4.456;2023-06-26T02:30:09;20.80;99.90
23637;DHT22;11995;50.842;4.456;2023-06-26T02:32:37;20.80;99.90
23637;DHT22;11995;50.842;4.456;2023-06-26T02:35:05;20.70;99.90
23637;DHT22;11995;50.842;4.456;2023-06-26T02:37:32;20.80;99.90
23637;DHT22;11995;50.842;4.456;2023-06-26T02:40:00;20.70;99.90
23637;DHT22;11995;50.842;4.456;2023-06-26T02:42:27;20.70;99.90
23637;DHT22;11995;50.842;4.456;2023-06-26T02:44:55;20.80;99.90
23637;DHT22;11995;50.842;4.456;2023-06-26T02:47:23;20.80;99.90
23637;DHT22;11995;50.842;4.456;2023-06-26T02:49:51;20.70;99.90
23637;DHT22;11995;50.842;4.456;2023-06-26T02:52:18;20.60;99.90
23637;DHT22;11995;50.842;4.456;2023-06-26T02:54:46;20.50;99.90
23637;DHT22;11995;50.842;4.456;2023-06-26T02:57:13;20.40;99.90
23637;DHT22;11995;50.842;4.456;2023-06-26T02:59:41;20.50;99.90
23637;DHT22;11995;50.842;4.456;2023-06-26T03:02:09;20.40;99.90
23637;DHT22;11995;50.842;4.456;2023-06-26T03:04:36;20.40;99.90
23637;DHT22;11995;50.842;4.456;2023-06-26T03:07:04;20.20;99.90
23637;DHT22;11995;50.842;4.456;2023-06-26T03:09:32;20.30;99.90
23637;DHT22;11995;50.842;4.456;2023-06-26T03:11:59;20.10;99.90
23637;DHT22;11995;50.842;4.456;2023-06-26T03:14:27;20.10;99.90
23637;DHT22;11995;50.842;4.456;2023-06-26T03:16:55;20.10;99.90
23637;DHT22;11995;50.842;4.456;2023-06-26T03:19:30;20.10;99.90
23637;DHT22;11995;50.842;4.456;2023-06-26T03:21:57;20.00;99.90
23637;DHT22;11995;50.842;4.456;2023-06-26T03:24:25;20.00;99.90
23637;DHT22;11995;50.842;4.456;2023-06-26T03:26:52;19.80;99.90
23637;DHT22;11995;50.842;4.456;2023-06-26T03:29:20;19.80;99.90
23637;DHT22;11995;50.842;4.456;2023-06-26T03:31:47;19.80;99.90
23637;DHT22;11995;50.842;4.456;2023-06-26T03:34:15;19.80;99.90
23637;DHT22;11995;50.842;4.456;2023-06-26T03:36:42;19.90;99.90
23637;DHT22;11995;50.842;4.456;2023-06-26T03:39:10;20.00;99.90
23637;DHT22;11995;50.842;4.456;2023-06-26T03:41:37;19.80;99.90
23637;DHT22;11995;50.842;4.456;2023-06-26T03:44:05;19.70;99.90
23637;DHT22;11995;50.842;4.456;2023-06-26T03:46:33;19.60;99.90
23637;DHT22;11995;50.842;4.456;2023-06-26T03:49:01;19.60;99.90
23637;DHT22;11995;50.842;4.456;2023-06-26T03:51:28;19.60;99.90
23637;DHT22;11995;50.842;4.456;2023-06-26T03:53:56;19.70;99.90
23637;DHT22;11995;50.842;4.456;2023-06-26T03:56:23;19.60;99.90
23637;DHT22;11995;50.842;4.456;2023-06-26T03:58:51;19.60;99.90
23637;DHT22;11995;50.842;4.456;2023-06-26T04:01:19;19.70;99.90
23637;DHT22;11995;50.842;4.456;2023-06-26T04:03:48;19.50;99.90
23637;DHT22;11995;50.842;4.456;2023-06-26T04:06:15;19.40;99.90
23637;DHT22;11995;50.842;4.456;2023-06-26T04:08:43;19.30;99.90
23637;DHT22;11995;50.842;4.456;2023-06-26T04:11:10;19.40;99.90
23637;DHT22;11995;50.842;4.456;2023-06-26T04:13:38;19.40;99.90
23637;DHT22;11995;50.842;4.456;2023-06-26T04:16:05;19.20;99.90
23637;DHT22;11995;50.842;4.456;2023-06-26T04:18:33;19.30;99.90
23637;DHT22;11995;50.842;4.456;2023-06-26T04:21:08;19.20;99.90
23637;DHT22;11995;50.842;4.456;2023-06-26T04:23:43;19.00;99.90
23637;DHT22;11995;50.842;4.456;2023-06-26T04:26:07;19.20;99.90
23637;DHT22;11995;50.842;4.456;2023-06-26T04:28:35;19.30;99.90
23637;DHT22;11995;50.842;4.456;2023-06-26T04:31:03;19.30;99.90
23637;DHT22;11995;50.842;4.456;2023-06-26T04:33:31;19.30;99.90
23637;DHT22;11995;50.842;4.456;2023-06-26T04:35:58;19.20;99.90
23637;DHT22;11995;50.842;4.456;2023-06-26T04:38:28;19.20;99.90
23637;DHT22;11995;50.842;4.456;2023-06-26T04:40:55;19.10;99.90
23637;DHT22;11995;50.842;4.456;2023-06-26T04:43:23;19.00;99.90
23637;DHT22;11995;50.842;4.456;2023-06-26T04:45:50;19.10;99.90
23637;DHT22;11995;50.842;4.456;2023-06-26T04:48:19;19.10;99.90
23637;DHT22;11995;50.842;4.456;2023-06-26T04:50:46;19.00;99.90
23637;DHT22;11995;50.842;4.456;2023-06-26T04:53:15;19.10;99.90
23637;DHT22;11995;50.842;4.456;2023-06-26T04:55:43;19.10;99.90
23637;DHT22;11995;50.842;4.456;2023-06-26T04:58:10;19.00;99.90
23637;DHT22;11995;50.842;4.456;2023-06-26T05:00:38;19.00;99.90
23637;DHT22;11995;50.842;4.456;2023-06-26T05:03:07;19.00;99.90
23637;DHT22;11995;50.842;4.456;2023-06-26T05:05:34;19.10;99.90
23637;DHT22;11995;50.842;4.456;2023-06-26T05:08:24;19.20;99.90
23637;DHT22;11995;50.842;4.456;2023-06-26T05:10:48;19.30;99.90
23637;DHT22;11995;50.842;4.456;2023-06-26T05:13:16;19.40;99.90
23637;DHT22;11995;50.842;4.456;2023-06-26T05:15:46;19.30;99.90
23637;DHT22;11995;50.842;4.456;2023-06-26T05:18:13;19.20;99.90
23637;DHT22;11995;50.842;4.456;2023-06-26T05:20:41;19.20;99.90
23637;DHT22;11995;50.842;4.456;2023-06-26T05:23:11;19.50;99.90
23637;DHT22;11995;50.842;4.456;2023-06-26T05:25:39;19.60;99.90
23637;DHT22;11995;50.842;4.456;2023-06-26T05:28:07;19.90;99.90
23637;DHT22;11995;50.842;4.456;2023-06-26T05:30:39;20.10;99.90
23637;DHT22;11995;50.842;4.456;2023-06-26T05:33:06;20.00;99.90
23637;DHT22;11995;50.842;4.456;2023-06-26T05:35:36;19.70;99.90
23637;DHT22;11995;50.842;4.456;2023-06-26T05:38:03;19.60;99.90
23637;DHT22;11995;50.842;4.456;2023-06-26T05:40:32;19.60;99.90
23637;DHT22;11995;50.842;4.456;2023-06-26T05:43:01;19.70;99.90
23637;DHT22;11995;50.842;4.456;2023-06-26T05:45:29;19.60;99.90
23637;DHT22;11995;50.842;4.456;2023-06-26T05:47:57;19.50;99.90
23637;DHT22;11995;50.842;4.456;2023-06-26T05:50:25;19.60;99.90
23637;DHT22;11995;50.842;4.456;2023-06-26T05:52:53;19.50;99.90
23637;DHT22;11995;50.842;4.456;2023-06-26T05:55:21;19.70;99.90
23637;DHT22;11995;50.842;4.456;2023-06-26T05:57:50;19.60;99.90
23637;DHT22;11995;50.842;4.456;2023-06-26T06:00:18;19.70;99.90
23637;DHT22;11995;50.842;4.456;2023-06-26T06:02:46;19.70;99.90
23637;DHT22;11995;50.842;4.456;2023-06-26T06:05:13;19.80;99.90
23637;DHT22;11995;50.842;4.456;2023-06-26T06:07:41;20.00;99.90
23637;DHT22;11995;50.842;4.456;2023-06-26T06:10:09;20.00;99.90
23637;DHT22;11995;50.842;4.456;2023-06-26T06:12:36;19.90;99.90
23637;DHT22;11995;50.842;4.456;2023-06-26T06:15:05;19.90;99.90
23637;DHT22;11995;50.842;4.456;2023-06-26T06:17:33;19.90;99.90
23637;DHT22;11995;50.842;4.456;2023-06-26T06:20:02;20.10;99.90
23637;DHT22;11995;50.842;4.456;2023-06-26T06:22:30;20.20;99.90
23637;DHT22;11995;50.842;4.456;2023-06-26T06:24:58;20.20;99.90
23637;DHT22;11995;50.842;4.456;2023-06-26T06:27:27;20.30;99.90
23637;DHT22;11995;50.842;4.456;2023-06-26T06:29:55;20.30;99.90
23637;DHT22;11995;50.842;4.456;2023-06-26T06:32:22;20.10;99.90
23637;DHT22;11995;50.842;4.456;2023-06-26T06:34:50;20.00;99.90
23637;DHT22;11995;50.842;4.456;2023-06-26T06:37:17;20.10;99.90
23637;DHT22;11995;50.842;4.456;2023-06-26T06:39:45;20.30;99.90
23637;DHT22;11995;50.842;4.456;2023-06-26T06:42:12;20.30;99.90
23637;DHT22;11995;50.842;4.456;2023-06-26T06:44:40;20.30;99.90
23637;DHT22;11995;50.842;4.456;2023-06-26T06:47:07;20.40;99.90
23637;DHT22;11995;50.842;4.456;2023-06-26T06:49:35;20.50;99.90
23637;DHT22;11995;50.842;4.456;2023-06-26T06:52:02;20.50;99.90
23637;DHT22;11995;50.842;4.456;2023-06-26T06:54:32;20.50;99.90
23637;DHT22;11995;50.842;4.456;2023-06-26T06:57:01;20.50;99.90
23637;DHT22;11995;50.842;4.456;2023-06-26T06:59:29;20.50;99.90
23637;DHT22;11995;50.842;4.456;2023-06-26T07:01:57;20.40;99.90
23637;DHT22;11995;50.842;4.456;2023-06-26T07:04:25;20.40;99.90
23637;DHT22;11995;50.842;4.456;2023-06-26T07:06:54;20.40;99.90
23637;DHT22;11995;50.842;4.456;2023-06-26T07:09:21;20.60;99.90
23637;DHT22;11995;50.842;4.456;2023-06-26T07:11:49;20.90;99.90
23637;DHT22;11995;50.842;4.456;2023-06-26T07:14:16;21.00;99.90
23637;DHT22;11995;50.842;4.456;2023-06-26T07:16:44;21.30;99.90
23637;DHT22;11995;50.842;4.456;2023-06-26T07:19:11;21.40;99.90
23637;DHT22;11995;50.842;4.456;2023-06-26T07:21:39;21.70;99.90
23637;DHT22;11995;50.842;4.456;2023-06-26T07:24:07;21.60;99.90
23637;DHT22;11995;50.842;4.456;2023-06-26T07:26:35;21.80;99.90
23637;DHT22;11995;50.842;4.456;2023-06-26T07:29:03;22.10;99.90
23637;DHT22;11995;50.842;4.456;2023-06-26T07:31:30;22.30;99.90
23637;DHT22;11995;50.842;4.456;2023-06-26T07:33:58;22.40;99.90
23637;DHT22;11995;50.842;4.456;2023-06-26T07:36:25;22.30;99.90
23637;DHT22;11995;50.842;4.456;2023-06-26T07:38:53;22.40;99.90
23637;DHT22;11995;50.842;4.456;2023-06-26T07:41:20;22.10;99.90
23637;DHT22;11995;50.842;4.456;2023-06-26T07:43:48;22.10;99.90
23637;DHT22;11995;50.842;4.456;2023-06-26T07:46:15;22.00;99.90
23637;DHT22;11995;50.842;4.456;2023-06-26T07:48:43;22.10;99.90
23637;DHT22;11995;50.842;4.456;2023-06-26T07:51:10;22.40;99.90
23637;DHT22;11995;50.842;4.456;2023-06-26T07:53:38;22.50;99.90
23637;DHT22;11995;50.842;4.456;2023-06-26T07:56:06;22.40;99.90
23637;DHT22;11995;50.842;4.456;2023-06-26T07:58:33;22.40;99.90
23637;DHT22;11995;50.842;4.456;2023-06-26T08:01:01;22.40;99.90
23637;DHT22;11995;50.842;4.456;2023-06-26T08:03:28;22.50;99.90
23637;DHT22;11995;50.842;4.456;2023-06-26T08:05:56;22.50;99.90
23637;DHT22;11995;50.842;4.456;2023-06-26T08:08:24;22.40;99.90
23637;DHT22;11995;50.842;4.456;2023-06-26T08:10:51;22.60;99.90
23637;DHT22;11995;50.842;4.456;2023-06-26T08:13:19;22.80;99.90
23637;DHT22;11995;50.842;4.456;2023-06-26T08:15:46;22.90;99.90
23637;DHT22;11995;50.842;4.456;2023-06-26T08:18:14;22.80;99.90
23637;DHT22;11995;50.842;4.456;2023-06-26T08:20:41;22.60;99.90
23637;DHT22;11995;50.842;4.456;2023-06-26T08:23:09;22.40;99.90
23637;DHT22;11995;50.842;4.456;2023-06-26T08:25:37;22.40;99.90
23637;DHT22;11995;50.842;4.456;2023-06-26T08:28:04;22.60;99.90
23637;DHT22;11995;50.842;4.456;2023-06-26T08:30:32;23.00;99.90
23637;DHT22;11995;50.842;4.456;2023-06-26T08:33:00;22.80;99.90
23637;DHT22;11995;50.842;4.456;2023-06-26T08:35:27;23.00;99.90
23637;DHT22;11995;50.842;4.456;2023-06-26T08:37:55;22.90;99.90
23637;DHT22;11995;50.842;4.456;2023-06-26T08:40:22;22.90;99.90
23637;DHT22;11995;50.842;4.456;2023-06-26T08:42:50;22.90;99.90
23637;DHT22;11995;50.842;4.456;2023-06-26T08:45:20;22.90;99.90
23637;DHT22;11995;50.842;4.456;2023-06-26T08:47:50;23.10;99.90
23637;DHT22;11995;50.842;4.456;2023-06-26T08:50:20;23.20;99.90
23637;DHT22;11995;50.842;4.456;2023-06-26T08:55:26;23.10;99.90
23637;DHT22;11995;50.842;4.456;2023-06-26T08:57:54;23.30;99.90
23637;DHT22;11995;50.842;4.456;2023-06-26T09:00:23;23.00;99.90
23637;DHT22;11995;50.842;4.456;2023-06-26T09:02:50;23.10;99.90
23637;DHT22;11995;50.842;4.456;2023-06-26T09:05:18;23.20;99.90
23637;DHT22;11995;50.842;4.456;2023-06-26T09:07:45;23.10;99.90
23637;DHT22;11995;50.842;4.456;2023-06-26T09:10:13;23.20;99.90
23637;DHT22;11995;50.842;4.456;2023-06-26T09:12:40;23.20;99.90
23637;DHT22;11995;50.842;4.456;2023-06-26T09:15:08;23.00;99.90
23637;DHT22;11995;50.842;4.456;2023-06-26T09:17:40;23.30;99.90
23637;DHT22;11995;50.842;4.456;2023-06-26T09:20:09;23.20;99.90
23637;DHT22;11995;50.842;4.456;2023-06-26T09:22:36;23.30;99.90
23637;DHT22;11995;50.842;4.456;2023-06-26T09:25:08;23.60;99.60
23637;DHT22;11995;50.842;4.456;2023-06-26T09:27:36;23.40;99.90
23637;DHT22;11995;50.842;4.456;2023-06-26T09:30:05;23.40;99.90
23637;DHT22;11995;50.842;4.456;2023-06-26T09:32:35;23.60;99.90
23637;DHT22;11995;50.842;4.456;2023-06-26T09:35:04;23.50;99.90
23637;DHT22;11995;50.842;4.456;2023-06-26T09:37:33;23.90;99.90
23637;DHT22;11995;50.842;4.456;2023-06-26T09:40:01;23.90;99.50
23637;DHT22;11995;50.842;4.456;2023-06-26T09:42:29;23.60;99.80
23637;DHT22;11995;50.842;4.456;2023-06-26T09:44:58;23.20;99.70
23637;DHT22;11995;50.842;4.456;2023-06-26T09:47:26;23.30;99.90
23637;DHT22;11995;50.842;4.456;2023-06-26T09:49:53;23.40;99.00
23637;DHT22;11995;50.842;4.456;2023-06-26T09:52:21;23.30;99.50
23637;DHT22;11995;50.842;4.456;2023-06-26T09:54:49;23.50;98.40
23637;DHT22;11995;50.842;4.456;2023-06-26T09:57:19;23.40;98.30
23637;DHT22;11995;50.842;4.456;2023-06-26T09:59:46;23.40;98.60
23637;DHT22;11995;50.842;4.456;2023-06-26T10:02:14;23.70;98.30
23637;DHT22;11995;50.842;4.456;2023-06-26T10:04:42;24.10;97.00
23637;DHT22;11995;50.842;4.456;2023-06-26T10:07:11;23.90;96.90
23637;DHT22;11995;50.842;4.456;2023-06-26T10:09:41;23.80;97.50
23637;DHT22;11995;50.842;4.456;2023-06-26T10:12:22;24.00;97.70
23637;DHT22;11995;50.842;4.456;2023-06-26T10:14:45;24.00;97.90
23637;DHT22;11995;50.842;4.456;2023-06-26T10:17:17;23.90;97.20
23637;DHT22;11995;50.842;4.456;2023-06-26T10:19:48;24.10;97.30
23637;DHT22;11995;50.842;4.456;2023-06-26T10:22:18;24.10;97.20
23637;DHT22;11995;50.842;4.456;2023-06-26T10:24:49;24.20;96.50
23637;DHT22;11995;50.842;4.456;2023-06-26T10:27:20;24.30;96.50
23637;DHT22;11995;50.842;4.456;2023-06-26T10:29:58;24.10;96.60
23637;DHT22;11995;50.842;4.456;2023-06-26T10:32:23;24.00;96.90
23637;DHT22;11995;50.842;4.456;2023-06-26T10:34:52;23.90;96.20
23637;DHT22;11995;50.842;4.456;2023-06-26T10:37:20;24.00;96.30
23637;DHT22;11995;50.842;4.456;2023-06-26T10:39:50;23.80;95.70
23637;DHT22;11995;50.842;4.456;2023-06-26T10:42:18;23.70;95.50
23637;DHT22;11995;50.842;4.456;2023-06-26T10:44:48;23.50;95.90
23637;DHT22;11995;50.842;4.456;2023-06-26T10:47:31;23.40;96.20
23637;DHT22;11995;50.842;4.456;2023-06-26T10:50:33;23.50;96.30
23637;DHT22;11995;50.842;4.456;2023-06-26T10:53:09;23.40;95.50
23637;DHT22;11995;50.842;4.456;2023-06-26T10:55:42;23.20;96.20
23637;DHT22;11995;50.842;4.456;2023-06-26T11:06:31;23.80;95.50
23637;DHT22;11995;50.842;4.456;2023-06-26T11:09:07;24.10;95.90
23637;DHT22;11995;50.842;4.456;2023-06-26T11:11:55;24.20;95.10
23637;DHT22;11995;50.842;4.456;2023-06-26T11:14:26;24.00;94.20
23637;DHT22;11995;50.842;4.456;2023-06-26T11:16:56;24.00;95.00
23637;DHT22;11995;50.842;4.456;2023-06-26T11:19:27;24.00;94.40
23637;DHT22;11995;50.842;4.456;2023-06-26T11:21:59;23.90;95.00
23637;DHT22;11995;50.842;4.456;2023-06-26T11:24:27;23.70;95.40
23637;DHT22;11995;50.842;4.456;2023-06-26T11:26:59;23.90;95.40
23637;DHT22;11995;50.842;4.456;2023-06-26T11:29:26;23.80;95.50
23637;DHT22;11995;50.842;4.456;2023-06-26T11:32:01;23.60;95.60
23637;DHT22;11995;50.842;4.456;2023-06-26T11:34:32;23.60;95.80
23637;DHT22;11995;50.842;4.456;2023-06-26T11:37:01;23.70;95.80
23637;DHT22;11995;50.842;4.456;2023-06-26T11:39:29;23.60;95.90
23637;DHT22;11995;50.842;4.456;2023-06-26T11:41:58;23.10;95.90
23637;DHT22;11995;50.842;4.456;2023-06-26T11:44:30;23.00;96.30
23637;DHT22;11995;50.842;4.456;2023-06-26T11:47:01;23.10;96.50
23637;DHT22;11995;50.842;4.456;2023-06-26T11:49:29;23.10;96.30
23637;DHT22;11995;50.842;4.456;2023-06-26T11:51:57;23.10;96.30
23637;DHT22;11995;50.842;4.456;2023-06-26T11:54:28;23.30;96.30
23637;DHT22;11995;50.842;4.456;2023-06-26T11:56:58;23.40;94.90
23637;DHT22;11995;50.842;4.456;2023-06-26T11:59:39;23.70;94.80
23637;DHT22;11995;50.842;4.456;2023-06-26T12:02:09;23.90;94.20
23637;DHT22;11995;50.842;4.456;2023-06-26T12:04:39;23.50;94.30
23637;DHT22;11995;50.842;4.456;2023-06-26T12:07:08;23.50;94.20
23637;DHT22;11995;50.842;4.456;2023-06-26T12:09:42;23.40;93.90
23637;DHT22;11995;50.842;4.456;2023-06-26T12:12:11;23.50;93.80
23637;DHT22;11995;50.842;4.456;2023-06-26T12:14:39;23.80;93.40
23637;DHT22;11995;50.842;4.456;2023-06-26T12:17:10;23.80;92.50
23637;DHT22;11995;50.842;4.456;2023-06-26T12:19:39;23.90;92.60
23637;DHT22;11995;50.842;4.456;2023-06-26T12:22:07;23.80;92.20
23637;DHT22;11995;50.842;4.456;2023-06-26T12:24:39;23.70;92.10
23637;DHT22;11995;50.842;4.456;2023-06-26T12:27:11;23.80;90.10
23637;DHT22;11995;50.842;4.456;2023-06-26T12:29:40;23.80;90.80
23637;DHT22;11995;50.842;4.456;2023-06-26T12:32:09;24.00;91.70
23637;DHT22;11995;50.842;4.456;2023-06-26T12:34:38;24.20;90.90
23637;DHT22;11995;50.842;4.456;2023-06-26T12:37:08;24.00;91.00
23637;DHT22;11995;50.842;4.456;2023-06-26T12:39:50;23.80;91.20
23637;DHT22;11995;50.842;4.456;2023-06-26T12:42:22;23.80;91.10
23637;DHT22;11995;50.842;4.456;2023-06-26T12:44:51;23.80;90.40
23637;DHT22;11995;50.842;4.456;2023-06-26T12:47:23;23.90;90.10
23637;DHT22;11995;50.842;4.456;2023-06-26T12:49:53;23.70;89.80
23637;DHT22;11995;50.842;4.456;2023-06-26T12:52:21;23.90;91.30
23637;DHT22;11995;50.842;4.456;2023-06-26T12:54:53;24.00;91.10
23637;DHT22;11995;50.842;4.456;2023-06-26T12:57:22;24.20;90.80
23637;DHT22;11995;50.842;4.456;2023-06-26T12:59:50;24.30;91.00
23637;DHT22;11995;50.842;4.456;2023-06-26T13:02:17;24.20;92.10
23637;DHT22;11995;50.842;4.456;2023-06-26T13:04:45;24.20;91.80
23637;DHT22;11995;50.842;4.456;2023-06-26T13:07:13;23.80;92.00
23637;DHT22;11995;50.842;4.456;2023-06-26T13:09:40;23.80;92.10
23637;DHT22;11995;50.842;4.456;2023-06-26T13:12:08;23.90;92.60
23637;DHT22;11995;50.842;4.456;2023-06-26T13:14:36;23.80;91.90
23637;DHT22;11995;50.842;4.456;2023-06-26T13:17:05;23.60;91.70
23637;DHT22;11995;50.842;4.456;2023-06-26T13:19:32;23.40;92.10
23637;DHT22;11995;50.842;4.456;2023-06-26T13:22:00;23.50;92.10
23637;DHT22;11995;50.842;4.456;2023-06-26T13:24:27;23.60;92.00
23637;DHT22;11995;50.842;4.456;2023-06-26T13:26:56;23.80;92.20
23637;DHT22;11995;50.842;4.456;2023-06-26T13:29:23;24.00;91.90
23637;DHT22;11995;50.842;4.456;2023-06-26T13:31:51;24.00;92.10
23637;DHT22;11995;50.842;4.456;2023-06-26T13:34:22;23.80;92.50
23637;DHT22;11995;50.842;4.456;2023-06-26T13:36:50;24.10;92.60
23637;DHT22;11995;50.842;4.456;2023-06-26T13:39:18;24.00;92.40
23637;DHT22;11995;50.842;4.456;2023-06-26T13:41:46;23.80;92.50
23637;DHT22;11995;50.842;4.456;2023-06-26T13:44:13;23.80;92.90
23637;DHT22;11995;50.842;4.456;2023-06-26T13:46:41;23.90;92.30
23637;DHT22;11995;50.842;4.456;2023-06-26T13:49:10;24.00;91.80
23637;DHT22;11995;50.842;4.456;2023-06-26T13:51:37;24.10;92.20
23637;DHT22;11995;50.842;4.456;2023-06-26T13:54:06;24.20;92.20
23637;DHT22;11995;50.842;4.456;2023-06-26T13:56:35;24.30;91.90
23637;DHT22;11995;50.842;4.456;2023-06-26T13:59:04;23.90;92.30
23637;DHT22;11995;50.842;4.456;2023-06-26T14:01:32;23.80;92.30
23637;DHT22;11995;50.842;4.456;2023-06-26T14:03:59;23.60;92.40
23637;DHT22;11995;50.842;4.456;2023-06-26T14:06:27;23.50;92.50
23637;DHT22;11995;50.842;4.456;2023-06-26T14:08:56;23.60;93.00
23637;DHT22;11995;50.842;4.456;2023-06-26T14:11:23;23.80;92.40
23637;DHT22;11995;50.842;4.456;2023-06-26T14:13:52;23.70;91.30
23637;DHT22;11995;50.842;4.456;2023-06-26T14:16:19;23.80;91.20
23637;DHT22;11995;50.842;4.456;2023-06-26T14:18:47;23.70;91.40
23637;DHT22;11995;50.842;4.456;2023-06-26T14:21:14;23.80;91.50
23637;DHT22;11995;50.842;4.456;2023-06-26T14:23:42;24.10;91.40
23637;DHT22;11995;50.842;4.456;2023-06-26T14:26:11;24.20;90.50
23637;DHT22;11995;50.842;4.456;2023-06-26T14:28:39;24.30;89.90
23637;DHT22;11995;50.842;4.456;2023-06-26T14:31:06;24.70;88.60
23637;DHT22;11995;50.842;4.456;2023-06-26T14:33:34;24.70;90.20
23637;DHT22;11995;50.842;4.456;2023-06-26T14:36:01;24.20;90.60
23637;DHT22;11995;50.842;4.456;2023-06-26T14:38:29;24.00;91.00
23637;DHT22;11995;50.842;4.456;2023-06-26T14:40:56;24.00;90.90
23637;DHT22;11995;50.842;4.456;2023-06-26T14:43:24;24.10;91.20
23637;DHT22;11995;50.842;4.456;2023-06-26T14:45:51;24.10;91.00
23637;DHT22;11995;50.842;4.456;2023-06-26T14:48:19;24.20;90.50
23637;DHT22;11995;50.842;4.456;2023-06-26T14:50:47;24.20;90.40
23637;DHT22;11995;50.842;4.456;2023-06-26T14:53:14;24.00;90.50
23637;DHT22;11995;50.842;4.456;2023-06-26T14:55:42;24.00;90.10
23637;DHT22;11995;50.842;4.456;2023-06-26T14:58:09;24.20;90.40
23637;DHT22;11995;50.842;4.456;2023-06-26T15:00:37;24.50;90.10
23637;DHT22;11995;50.842;4.456;2023-06-26T15:03:04;24.40;90.40
23637;DHT22;11995;50.842;4.456;2023-06-26T15:05:32;24.60;90.50
23637;DHT22;11995;50.842;4.456;2023-06-26T15:07:59;24.40;89.90
23637;DHT22;11995;50.842;4.456;2023-06-26T15:10:27;24.20;90.20
23637;DHT22;11995;50.842;4.456;2023-06-26T15:12:54;24.00;90.80
23637;DHT22;11995;50.842;4.456;2023-06-26T15:15:22;23.70;91.10
23637;DHT22;11995;50.842;4.456;2023-06-26T15:17:49;23.90;91.30
23637;DHT22;11995;50.842;4.456;2023-06-26T15:20:17;23.80;90.90
23637;DHT22;11995;50.842;4.456;2023-06-26T15:22:44;23.80;91.40
23637;DHT22;11995;50.842;4.456;2023-06-26T15:25:12;23.80;91.70
23637;DHT22;11995;50.842;4.456;2023-06-26T15:27:40;23.70;91.80
23637;DHT22;11995;50.842;4.456;2023-06-26T15:30:08;23.60;92.20
23637;DHT22;11995;50.842;4.456;2023-06-26T15:32:35;23.70;92.40
23637;DHT22;11995;50.842;4.456;2023-06-26T15:35:03;23.60;92.60
23637;DHT22;11995;50.842;4.456;2023-06-26T15:37:30;23.50;93.20
23637;DHT22;11995;50.842;4.456;2023-06-26T15:39:58;23.40;93.30
23637;DHT22;11995;50.842;4.456;2023-06-26T15:42:28;23.30;92.70
23637;DHT22;11995;50.842;4.456;2023-06-26T15:44:56;23.20;92.90
23637;DHT22;11995;50.842;4.456;2023-06-26T15:47:23;23.20;92.90
23637;DHT22;11995;50.842;4.456;2023-06-26T15:49:51;23.30;92.60
23637;DHT22;11995;50.842;4.456;2023-06-26T15:52:18;23.40;92.90
23637;DHT22;11995;50.842;4.456;2023-06-26T15:54:46;23.60;92.60